Time;durP1;ratioP1;P1;durP2;ratioP2;P2;SDS_P1;SDS_P2;PMS_P1;PMS_P2;Temp;Humidity;BMP_temperature;BMP_pressure;BME280_temperature;BME280_humidity;BME280_pressure;Samples;Min_cycle;Max_cycle;Signal;HPM_P1;HPM_P2
2022/07/18 00:01:06;;;;;;;;;0.00;0.00;;;;;22.46;52.79;99406.97;4892436;28;105629;-61
2022/07/18 00:03:34;;;;;;;;;1.00;1.00;;;;;22.45;52.96;99408.06;4903508;28;102235;-61
2022/07/18 00:06:01;;;;;;;;;0.33;0.33;;;;;22.45;52.76;99403.38;4894227;28;105298;-61
2022/07/18 00:08:28;;;;;;;;;0.00;0.00;;;;;22.44;52.80;99395.34;4889749;28;102219;-61
2022/07/18 00:10:55;;;;;;;;;0.33;0.00;;;;;22.42;52.75;99397.56;4904317;28;105622;-61
2022/07/18 00:13:22;;;;;;;;;1.00;1.00;;;;;22.43;52.77;99393.69;4906321;28;102477;-61
2022/07/18 00:15:50;;;;;;;;;0.00;0.00;;;;;22.44;52.66;99396.19;4924129;28;102431;-61
2022/07/18 00:18:17;;;;;;;;;0.00;0.00;;;;;22.44;52.74;99392.59;4908939;28;102668;-61
2022/07/18 00:20:44;;;;;;;;;1.00;0.00;;;;;22.42;52.55;99400.31;4911532;28;104104;-61
2022/07/18 00:23:12;;;;;;;;;2.00;0.00;;;;;22.40;52.52;99391.47;4910288;28;102626;-61
2022/07/18 00:25:39;;;;;;;;;0.00;0.00;;;;;22.40;52.53;99400.56;4910571;28;102536;-61
2022/07/18 00:28:06;;;;;;;;;0.00;0.00;;;;;22.40;52.66;99394.22;4897666;28;102195;-61
2022/07/18 00:30:34;;;;;;;;;0.00;0.00;;;;;22.39;52.64;99393.38;4913962;28;104868;-61
2022/07/18 00:33:01;;;;;;;;;0.33;0.33;;;;;22.40;52.53;99394.22;4893669;28;103237;-61
2022/07/18 00:35:28;;;;;;;;;0.00;0.00;;;;;22.40;52.88;99392.28;4923851;28;102210;-61
2022/07/18 00:37:55;;;;;;;;;0.00;0.00;;;;;22.38;52.39;99391.69;4911369;28;102084;-60
2022/07/18 00:40:23;;;;;;;;;0.00;0.00;;;;;22.38;52.56;99388.13;4910357;28;104296;-61
2022/07/18 00:42:50;;;;;;;;;0.00;0.00;;;;;22.37;52.46;99387.31;4911836;28;102975;-62
2022/07/18 00:45:17;;;;;;;;;0.33;0.33;;;;;22.35;52.51;99385.88;4910131;28;102339;-60
2022/07/18 00:47:44;;;;;;;;;1.00;1.00;;;;;22.36;52.83;99390.31;4912066;28;102650;-62
2022/07/18 00:50:11;;;;;;;;;0.00;0.00;;;;;22.35;52.52;99383.13;4897465;28;104572;-61
2022/07/18 00:52:38;;;;;;;;;0.00;0.00;;;;;22.36;52.52;99391.16;4907747;28;103498;-61
2022/07/18 00:55:06;;;;;;;;;0.00;0.00;;;;;22.36;52.24;99390.31;4926652;28;102512;-61
2022/07/18 00:57:33;;;;;;;;;0.00;0.00;;;;;22.36;52.48;99387.56;4922132;28;102132;-61
2022/07/18 01:02:46;;;;;;;;;1.00;0.00;;;;;22.35;52.20;99388.63;4892777;28;104627;-61
2022/07/18 01:05:14;;;;;;;;;0.00;0.00;;;;;22.33;52.37;99393.59;4906797;28;103515;-60
2022/07/18 01:07:41;;;;;;;;;0.00;0.00;;;;;22.33;52.51;99399.09;4880547;28;102632;-62
2022/07/18 01:10:08;;;;;;;;;0.00;0.00;;;;;22.29;52.33;99382.22;4900273;28;104404;-61
2022/07/18 01:12:36;;;;;;;;;2.00;1.00;;;;;22.29;52.58;99386.94;4917081;28;102038;-61
2022/07/18 01:15:04;;;;;;;;;0.33;0.33;;;;;22.29;52.05;99387.75;4909085;28;102157;-61
2022/07/18 01:17:32;;;;;;;;;0.33;0.33;;;;;22.27;52.35;99391.84;4913302;28;102205;-61
2022/07/18 01:20:01;;;;;;;;;0.00;0.00;;;;;22.28;52.25;99396.28;4905482;28;105673;-61
2022/07/18 01:22:28;;;;;;;;;0.00;0.00;;;;;22.27;52.54;99391.84;4909681;28;102145;-61
2022/07/18 01:24:56;;;;;;;;;0.00;0.00;;;;;22.28;52.40;99390.78;4911221;28;102511;-62
2022/07/18 01:27:23;;;;;;;;;0.67;0.67;;;;;22.29;52.43;99386.94;4933713;28;102316;-61
2022/07/18 01:29:51;;;;;;;;;1.00;1.00;;;;;22.28;52.31;99386.09;4892087;28;104051;-61
2022/07/18 01:32:19;;;;;;;;;0.00;0.00;;;;;22.29;52.45;99384.97;4908165;28;102809;-61
2022/07/18 01:34:47;;;;;;;;;0.67;0.00;;;;;22.27;51.96;99389.94;4908528;28;103050;-61
2022/07/18 01:37:15;;;;;;;;;1.00;0.67;;;;;22.27;52.07;99383.59;4894066;28;102773;-61
2022/07/18 01:39:43;;;;;;;;;0.00;0.00;;;;;22.25;52.35;99381.91;4910882;28;103222;-61
2022/07/18 01:42:10;;;;;;;;;0.00;0.00;;;;;22.24;52.29;99394.03;4911645;28;102218;-61
2022/07/18 01:44:37;;;;;;;;;1.00;0.00;;;;;22.21;52.10;99386.28;4929731;28;102449;-61
2022/07/18 01:47:05;;;;;;;;;0.67;0.67;;;;;22.20;52.25;99381.84;4909996;28;103509;-61
2022/07/18 01:49:32;;;;;;;;;0.67;0.67;;;;;22.20;52.30;99379.09;4932849;28;108937;-60
2022/07/18 01:52:00;;;;;;;;;0.33;0.33;;;;;22.19;52.10;99374.69;4913457;28;102226;-61
2022/07/18 01:54:29;;;;;;;;;0.00;0.00;;;;;22.20;52.36;99373.59;4912491;28;102910;-61
2022/07/18 01:56:56;;;;;;;;;0.00;0.00;;;;;22.21;52.37;99367.00;4890542;28;102353;-61
2022/07/18 01:59:23;;;;;;;;;0.67;0.00;;;;;22.22;52.30;99371.41;4913292;28;105012;-61
2022/07/18 02:01:50;;;;;;;;;1.00;1.00;;;;;22.22;52.20;99367.84;4909478;28;102559;-61
2022/07/18 02:04:18;;;;;;;;;0.67;0.67;;;;;22.20;52.22;99376.34;4909713;28;102360;-61
2022/07/18 02:06:45;;;;;;;;;0.00;0.00;;;;;22.20;52.20;99370.84;4889643;28;102475;-61
2022/07/18 02:09:12;;;;;;;;;0.67;0.00;;;;;22.18;52.08;99370.28;4897131;28;104090;-61
2022/07/18 02:11:39;;;;;;;;;0.00;0.00;;;;;22.19;51.95;99382.13;4896343;28;102454;-61
2022/07/18 02:14:06;;;;;;;;;1.00;1.00;;;;;22.18;52.04;99388.72;4897508;28;103269;-62
2022/07/18 02:16:34;;;;;;;;;1.00;1.00;;;;;22.14;52.19;99380.16;4912949;28;102370;-62
2022/07/18 02:19:01;;;;;;;;;1.00;1.00;;;;;22.13;51.99;99381.22;4912049;28;105940;-60
2022/07/18 02:21:28;;;;;;;;;1.00;1.00;;;;;22.13;51.96;99377.63;4914055;28;102240;-61
2022/07/18 02:23:55;;;;;;;;;1.00;1.00;;;;;22.13;51.96;99372.97;4910876;28;102693;-61
2022/07/18 02:26:23;;;;;;;;;1.00;0.33;;;;;22.12;51.78;99374.03;4912038;28;102451;-61
2022/07/18 02:28:50;;;;;;;;;1.00;1.00;;;;;22.13;52.27;99372.97;4935358;28;105582;-61
2022/07/18 02:31:17;;;;;;;;;1.33;1.00;;;;;22.12;52.26;99376.81;4908520;28;102751;-61
2022/07/18 02:33:44;;;;;;;;;0.67;0.67;;;;;22.13;52.11;99372.97;4906091;28;102158;-61
2022/07/18 02:36:12;;;;;;;;;1.00;1.00;;;;;22.14;52.19;99379.31;4911160;28;103126;-61
2022/07/18 02:38:39;;;;;;;;;0.00;0.00;;;;;22.14;51.76;99380.16;4909212;28;104164;-62
2022/07/18 02:41:06;;;;;;;;;1.00;1.00;;;;;22.14;52.03;99382.06;4913600;28;109571;-61
2022/07/18 02:43:33;;;;;;;;;1.00;1.00;;;;;22.14;51.81;99380.16;4909217;28;102396;-62
2022/07/18 02:46:02;;;;;;;;;0.67;0.67;;;;;22.13;51.96;99381.22;4911246;28;102562;-61
2022/07/18 02:48:29;;;;;;;;;0.33;0.33;;;;;22.12;51.94;99379.56;4910593;28;104224;-61
2022/07/18 02:50:57;;;;;;;;;1.00;0.00;;;;;22.10;51.78;99387.25;4912596;28;102216;-61
2022/07/18 02:53:24;;;;;;;;;1.00;1.00;;;;;22.08;51.83;99381.16;4905929;28;102239;-61
2022/07/18 02:55:51;;;;;;;;;0.00;0.00;;;;;22.06;51.93;99383.34;4907477;28;102213;-61
2022/07/18 02:58:18;;;;;;;;;0.33;0.33;;;;;22.06;51.85;99380.59;4936715;28;103385;-63
2022/07/18 03:00:45;;;;;;;;;0.00;0.00;;;;;22.05;51.90;99387.19;4905934;28;102558;-61
2022/07/18 03:03:12;;;;;;;;;0.00;0.00;;;;;22.05;51.91;99381.69;4911046;28;102210;-61
2022/07/18 03:05:40;;;;;;;;;1.00;0.00;;;;;22.06;51.80;99383.34;4911766;28;104116;-61
2022/07/18 03:08:07;;;;;;;;;1.00;1.00;;;;;22.08;51.65;99381.16;4877403;28;104897;-61
2022/07/18 03:10:34;;;;;;;;;1.00;1.00;;;;;22.08;51.97;99386.66;4923734;28;102244;-61
2022/07/18 03:13:01;;;;;;;;;1.00;0.67;;;;;22.09;51.64;99382.84;4910942;28;102095;-61
2022/07/18 03:15:28;;;;;;;;;1.00;0.67;;;;;22.08;51.79;99386.66;4911497;28;102226;-61
2022/07/18 03:17:55;;;;;;;;;1.00;1.00;;;;;22.06;51.71;99383.34;4892787;28;104822;-61
2022/07/18 03:20:22;;;;;;;;;1.00;1.00;;;;;22.06;51.42;99391.63;4912285;28;102383;-61
2022/07/18 03:22:50;;;;;;;;;1.00;1.00;;;;;22.05;51.65;99397.38;4918901;28;102491;-61
2022/07/18 03:25:17;;;;;;;;;0.00;0.00;;;;;22.03;51.82;99405.06;4910914;28;104587;-61
2022/07/18 03:27:44;;;;;;;;;0.00;0.00;;;;;22.03;51.66;99405.06;4909044;28;103896;-61
2022/07/18 03:30:11;;;;;;;;;1.00;1.00;;;;;22.02;51.53;99404.22;4913534;28;102503;-61
2022/07/18 03:32:39;;;;;;;;;1.00;1.00;;;;;22.01;51.78;99407.25;4910474;28;102149;-61
2022/07/18 03:35:06;;;;;;;;;0.00;0.00;;;;;22.03;51.74;99416.06;4915351;28;102602;-60
2022/07/18 03:37:33;;;;;;;;;0.00;0.00;;;;;22.00;51.81;99411.91;4894988;28;109082;-61
2022/07/18 03:40:01;;;;;;;;;0.67;0.67;;;;;22.01;51.59;99408.09;4903813;28;102213;-61
2022/07/18 03:42:28;;;;;;;;;0.33;0.33;;;;;22.03;51.87;99413.31;4914447;28;102353;-61
2022/07/18 03:44:55;;;;;;;;;0.00;0.00;;;;;22.04;51.74;99415.81;4897557;28;102455;-61
2022/07/18 03:47:22;;;;;;;;;1.33;1.00;;;;;22.03;51.42;99414.16;4913996;28;105927;-61
2022/07/18 03:49:49;;;;;;;;;0.00;0.00;;;;;22.02;51.18;99423.50;4934035;28;102570;-61
2022/07/18 03:52:16;;;;;;;;;0.67;0.67;;;;;22.02;51.54;99417.19;4912686;28;102699;-61
2022/07/18 03:54:43;;;;;;;;;1.00;1.00;;;;;22.01;51.22;99418.25;4905783;28;102252;-61
2022/07/18 03:57:11;;;;;;;;;1.00;1.00;;;;;21.99;51.55;99420.41;4910835;28;104357;-61
2022/07/18 03:59:39;;;;;;;;;1.00;1.00;;;;;21.99;51.29;99421.25;4914074;28;102265;-61
2022/07/18 04:02:06;;;;;;;;;0.00;0.00;;;;;21.98;51.19;99419.59;4914026;28;102517;-61
2022/07/18 04:04:33;;;;;;;;;1.33;0.67;;;;;22.00;51.23;99422.94;4913416;28;103252;-61
2022/07/18 04:07:00;;;;;;;;;1.00;1.00;;;;;21.99;51.31;99420.41;4909764;28;104240;-61
2022/07/18 04:09:28;;;;;;;;;1.00;1.00;;;;;21.97;51.29;99434.47;4913933;28;102690;-61
2022/07/18 04:11:55;;;;;;;;;1.00;1.00;;;;;21.98;51.42;99430.59;4936606;28;102783;-60
2022/07/18 04:14:22;;;;;;;;;1.00;1.00;;;;;21.99;51.28;99432.28;4912582;28;102679;-61
2022/07/18 04:16:49;;;;;;;;;1.00;1.00;;;;;21.98;51.08;99438.88;4907666;28;103981;-61
2022/07/18 04:19:17;;;;;;;;;1.00;1.00;;;;;21.99;51.30;99431.44;4911254;28;104211;-61
2022/07/18 04:21:44;;;;;;;;;1.00;1.00;;;;;21.99;50.90;99439.69;4931110;28;103265;-61
2022/07/18 04:24:11;;;;;;;;;1.00;1.00;;;;;22.00;51.16;99436.69;4905775;28;102230;-61
2022/07/18 04:26:38;;;;;;;;;0.33;0.33;;;;;22.00;51.03;99439.47;4902631;28;102827;-61
2022/07/18 04:29:05;;;;;;;;;1.00;1.00;;;;;21.99;51.19;99435.03;4913802;28;102407;-60
2022/07/18 04:31:33;;;;;;;;;0.33;0.33;;;;;21.98;51.03;99433.34;4915045;28;102260;-61
2022/07/18 04:34:00;;;;;;;;;1.00;1.00;;;;;21.95;51.15;99424.78;4931687;28;103157;-61
2022/07/18 04:36:28;;;;;;;;;1.00;1.00;;;;;21.95;50.79;99425.63;4911700;28;104063;-61
2022/07/18 04:38:55;;;;;;;;;1.00;1.00;;;;;21.96;51.10;99434.72;4896175;28;102395;-61
2022/07/18 04:41:24;;;;;;;;;1.00;1.00;;;;;21.94;50.88;99423.94;4933015;28;102151;-61
2022/07/18 04:43:52;;;;;;;;;1.67;1.67;;;;;21.97;51.09;99426.22;4941143;28;102950;-61
2022/07/18 04:46:19;;;;;;;;;1.00;1.00;;;;;21.97;50.70;99430.88;4910882;28;104233;-61
2022/07/18 04:48:46;;;;;;;;;1.00;1.00;;;;;21.95;50.89;99425.63;4937447;28;102862;-65
2022/07/18 04:51:14;;;;;;;;;1.00;1.00;;;;;21.93;51.09;99427.78;4897567;28;102503;-65
2022/07/18 04:53:41;;;;;;;;;1.00;1.00;;;;;21.94;51.26;99423.94;4897404;28;102551;-65
2022/07/18 04:56:08;;;;;;;;;1.00;1.00;;;;;21.95;51.07;99435.78;4909250;28;104084;-65
2022/07/18 04:58:35;;;;;;;;;1.00;1.00;;;;;21.95;50.77;99441.31;4938827;28;102384;-65
2022/07/18 05:01:02;;;;;;;;;2.00;1.00;;;;;21.95;51.05;99435.78;4915422;28;102602;-65
2022/07/18 05:03:29;;;;;;;;;1.00;1.00;;;;;21.93;50.86;99433.28;4914363;28;102316;-65
2022/07/18 05:05:57;;;;;;;;;0.00;0.00;;;;;21.94;50.67;99434.97;4914330;28;104268;-65
2022/07/18 05:08:24;;;;;;;;;1.00;1.00;;;;;21.93;50.61;99430.53;4914407;28;102303;-65
2022/07/18 05:10:51;;;;;;;;;1.33;1.33;;;;;21.94;50.51;99429.44;4913248;28;102013;-65
2022/07/18 05:13:18;;;;;;;;;1.00;1.00;;;;;21.93;51.02;99427.78;4940762;28;102590;-65
2022/07/18 05:15:45;;;;;;;;;1.00;1.00;;;;;21.94;50.68;99418.44;4909510;28;105459;-65
2022/07/18 05:18:12;;;;;;;;;0.00;0.00;;;;;21.93;50.97;99416.75;4916722;28;102609;-65
2022/07/18 05:20:40;;;;;;;;;0.67;0.67;;;;;21.94;50.43;99417.59;4912893;28;102413;-65
2022/07/18 05:23:10;;;;;;;;;0.33;0.33;;;;;21.95;51.07;99424.78;4913828;28;102782;-66
2022/07/18 05:25:37;;;;;;;;;0.33;0.33;;;;;21.95;50.59;99420.09;4922408;28;103731;-65
2022/07/18 05:28:04;;;;;;;;;1.67;1.00;;;;;21.94;50.54;99418.44;4910921;28;102160;-65
2022/07/18 05:30:32;;;;;;;;;2.00;2.00;;;;;21.94;50.49;99414.84;4912247;28;102552;-65
2022/07/18 05:32:59;;;;;;;;;2.00;2.00;;;;;21.96;50.47;99420.94;4920648;28;102202;-65
2022/07/18 05:35:26;;;;;;;;;2.00;1.00;;;;;21.97;50.54;99419.88;4914555;28;104353;-65
2022/07/18 05:37:53;;;;;;;;;2.00;1.67;;;;;21.96;51.12;99426.44;4923545;28;102315;-65
2022/07/18 05:40:20;;;;;;;;;1.00;1.00;;;;;21.95;50.56;99417.34;4911079;28;102138;-65
2022/07/18 05:42:49;;;;;;;;;1.00;1.00;;;;;21.97;50.78;99420.69;4914979;28;102622;-65
2022/07/18 05:45:22;;;;;;;;;1.00;1.00;;;;;21.97;50.66;99423.44;4918982;28;102894;-65
2022/07/18 05:47:50;;;;;;;;;1.00;1.00;;;;;21.99;50.79;99420.41;4937882;28;102231;-65
2022/07/18 05:50:17;;;;;;;;;1.00;1.00;;;;;21.95;50.90;99414.59;4913472;28;102067;-66
2022/07/18 05:52:45;;;;;;;;;2.00;1.33;;;;;21.97;50.94;99414.34;4929516;28;102512;-66
2022/07/18 05:55:12;;;;;;;;;1.67;1.00;;;;;21.99;50.73;99410.25;4914696;28;104412;-64
2022/07/18 05:57:39;;;;;;;;;0.67;0.67;;;;;21.99;50.70;99413.00;4912789;28;102196;-65
2022/07/18 06:00:08;;;;;;;;;0.67;0.67;;;;;21.97;50.92;99400.59;4918322;28;102661;-65
2022/07/18 06:02:35;;;;;;;;;1.00;1.00;;;;;22.01;50.61;99413.59;4896412;28;102248;-65
2022/07/18 06:05:04;;;;;;;;;1.00;1.00;;;;;22.04;50.08;99410.31;4879428;28;108915;-65
2022/07/18 06:07:52;;;;;;;;;1.00;1.00;;;;;22.04;50.08;99414.97;4899889;28;102315;-65
2022/07/18 06:10:19;;;;;;;;;1.00;1.00;;;;;22.07;50.49;99418.06;4912383;28;102227;-65
2022/07/18 06:12:47;;;;;;;;;1.00;1.00;;;;;22.04;50.64;99418.56;4912521;28;102533;-65
2022/07/18 06:15:14;;;;;;;;;1.00;1.00;;;;;22.08;50.44;99416.97;4891871;28;104082;-65
2022/07/18 06:17:42;;;;;;;;;1.00;1.00;;;;;22.09;49.93;99424.16;4914128;28;102816;-65
2022/07/18 06:20:09;;;;;;;;;1.00;1.00;;;;;22.09;50.22;99426.06;4916890;28;102278;-65
2022/07/18 06:22:36;;;;;;;;;1.00;1.00;;;;;22.09;50.42;99424.16;4926185;28;102473;-65
2022/07/18 06:25:04;;;;;;;;;1.00;1.00;;;;;22.09;50.22;99420.56;4898763;28;104814;-65
2022/07/18 06:27:31;;;;;;;;;1.00;1.00;;;;;22.08;50.50;99425.22;4913959;28;104033;-65
2022/07/18 06:29:59;;;;;;;;;1.00;1.00;;;;;22.12;50.42;99415.38;4914331;28;102130;-65
2022/07/18 06:32:26;;;;;;;;;1.00;1.00;;;;;22.14;50.42;99418.72;4914073;28;102621;-65
2022/07/18 06:34:53;;;;;;;;;1.00;1.00;;;;;22.15;50.19;99417.59;4934354;28;102825;-65
2022/07/18 06:37:20;;;;;;;;;1.00;1.00;;;;;22.16;50.22;99415.69;4909987;28;102360;-65
2022/07/18 06:39:47;;;;;;;;;1.00;1.00;;;;;22.16;50.33;99421.19;4915987;28;102711;-66
2022/07/18 06:42:14;;;;;;;;;2.00;2.00;;;;;22.17;50.39;99423.69;4937248;28;103001;-65
2022/07/18 06:44:41;;;;;;;;;2.00;1.00;;;;;22.17;49.97;99422.88;4911213;28;104244;-65
2022/07/18 06:47:09;;;;;;;;;1.00;1.00;;;;;22.17;50.28;99425.63;4916987;28;103274;-65
2022/07/18 06:49:36;;;;;;;;;1.00;1.00;;;;;22.17;50.30;99423.69;4913395;28;104547;-65
2022/07/18 06:52:03;;;;;;;;;2.00;2.00;;;;;22.18;50.27;99410.75;4897950;28;102684;-65
2022/07/18 06:54:33;;;;;;;;;1.67;1.67;;;;;22.18;50.10;99414.34;4933697;28;103573;-65
2022/07/18 06:57:00;;;;;;;;;1.00;1.00;;;;;22.20;50.05;99427.84;4916669;28;102467;-66
2022/07/18 06:59:27;;;;;;;;;2.00;1.00;;;;;22.21;50.32;99415.75;4912465;28;102651;-65
2022/07/18 07:01:54;;;;;;;;;1.00;1.00;;;;;22.25;50.45;99412.22;4899706;28;102561;-65
2022/07/18 07:04:21;;;;;;;;;2.00;2.00;;;;;22.29;50.27;99414.50;4910936;28;105583;-65
2022/07/18 07:06:48;;;;;;;;;0.67;0.67;;;;;22.29;50.18;99409.78;4907441;28;101891;-66
2022/07/18 07:09:16;;;;;;;;;1.67;1.00;;;;;22.32;50.06;99422.22;4938150;28;102192;-65
2022/07/18 07:11:43;;;;;;;;;2.33;1.33;;;;;22.33;50.13;99412.88;4914221;28;102305;-65
2022/07/18 07:14:10;;;;;;;;;1.00;1.00;;;;;22.33;50.15;99410.97;4937265;28;104284;-65
2022/07/18 07:16:37;;;;;;;;;1.00;1.00;;;;;22.36;50.23;99417.88;4910524;28;102074;-65
2022/07/18 07:19:04;;;;;;;;;1.00;1.00;;;;;22.35;50.21;99407.94;4923304;28;102072;-65
2022/07/18 07:21:32;;;;;;;;;1.33;1.00;;;;;22.36;49.86;99418.69;4914826;28;102159;-65
2022/07/18 07:23:59;;;;;;;;;1.00;1.00;;;;;22.37;49.93;99405.75;4912483;28;104098;-65
2022/07/18 07:26:26;;;;;;;;;2.00;1.00;;;;;22.36;49.84;99409.59;4894293;28;102858;-65
2022/07/18 07:28:53;;;;;;;;;1.00;1.00;;;;;22.35;49.88;99411.50;4910279;28;102061;-65
2022/07/18 07:31:21;;;;;;;;;2.00;1.00;;;;;22.36;49.95;99410.44;4928645;28;102100;-65
2022/07/18 07:33:48;;;;;;;;;1.00;1.00;;;;;22.37;50.14;99405.75;4911652;28;103572;-65
2022/07/18 07:36:15;;;;;;;;;1.00;1.00;;;;;22.37;49.95;99416.78;4905601;28;102208;-66
2022/07/18 07:38:42;;;;;;;;;2.00;1.00;;;;;22.38;49.81;99410.19;4908967;28;102188;-65
2022/07/18 07:41:09;;;;;;;;;0.00;0.00;;;;;22.37;49.87;99412.09;4914597;28;102252;-65
2022/07/18 07:43:38;;;;;;;;;1.00;1.00;;;;;22.39;49.92;99415.41;4913709;28;109123;-65
2022/07/18 07:46:06;;;;;;;;;0.00;0.00;;;;;22.39;50.15;99409.06;4906923;28;102588;-65
2022/07/18 07:48:33;;;;;;;;;1.00;1.00;;;;;22.39;49.89;99409.91;4934293;28;102335;-65
2022/07/18 07:51:01;;;;;;;;;0.67;0.67;;;;;22.39;49.93;99403.56;4906478;28;102609;-65
2022/07/18 07:53:28;;;;;;;;;0.67;0.00;;;;;22.39;49.96;99403.56;4919097;28;104128;-65
2022/07/18 07:55:55;;;;;;;;;1.00;1.00;;;;;22.41;49.97;99401.41;4915825;28;102176;-65
2022/07/18 07:58:22;;;;;;;;;1.00;1.00;;;;;22.40;49.75;99406.06;4934053;28;102243;-65
2022/07/18 08:00:49;;;;;;;;;1.00;1.00;;;;;22.41;49.82;99404.16;4908167;28;102119;-65
2022/07/18 08:03:17;;;;;;;;;0.33;0.33;;;;;22.42;49.86;99397.56;4912791;28;105755;-65
2022/07/18 08:05:46;;;;;;;;;1.00;1.00;;;;;22.40;49.68;99389.53;4911028;28;102291;-65
2022/07/18 08:08:13;;;;;;;;;0.00;0.00;;;;;22.42;49.81;99392.03;4921928;28;102400;-65
2022/07/18 08:10:40;;;;;;;;;0.00;0.00;;;;;22.39;50.00;99390.63;4901054;28;103170;-65
2022/07/18 08:13:10;;;;;;;;;0.67;0.67;;;;;22.39;49.97;99389.78;4938031;28;107570;-65
2022/07/18 08:15:38;;;;;;;;;0.00;0.00;;;;;22.41;50.00;99387.63;4915299;28;102041;-65
2022/07/18 08:18:05;;;;;;;;;0.00;0.00;;;;;22.42;50.01;99400.31;4898859;28;102202;-65
2022/07/18 08:20:33;;;;;;;;;1.00;1.00;;;;;22.40;49.87;99385.94;4924034;28;102566;-65
2022/07/18 08:23:04;;;;;;;;;1.00;1.00;;;;;22.41;50.02;99393.13;4918327;28;104946;-65
2022/07/18 08:25:34;;;;;;;;;0.67;0.67;;;;;22.41;50.09;99391.22;4915656;28;102325;-65
2022/07/18 08:28:01;;;;;;;;;0.00;0.00;;;;;22.41;49.81;99391.22;4916080;28;102534;-65
2022/07/18 08:30:29;;;;;;;;;1.00;1.00;;;;;22.42;50.08;99392.03;4919982;28;102534;-65
2022/07/18 08:32:56;;;;;;;;;0.00;0.00;;;;;22.42;50.01;99387.38;4926720;28;105381;-65
2022/07/18 08:35:25;;;;;;;;;0.00;0.00;;;;;22.43;50.06;99390.94;4910302;28;102519;-66
2022/07/18 08:37:52;;;;;;;;;0.33;0.33;;;;;22.42;49.93;99381.84;4939748;28;102147;-65
2022/07/18 08:40:19;;;;;;;;;1.00;1.00;;;;;22.42;50.13;99376.34;4913433;28;102100;-65
2022/07/18 08:42:49;;;;;;;;;0.00;0.00;;;;;22.44;49.84;99384.34;4914106;28;104073;-65
2022/07/18 08:45:36;;;;;;;;;0.00;0.00;;;;;22.43;49.82;99382.66;4919674;28;102279;-65
2022/07/18 08:48:04;;;;;;;;;0.00;0.00;;;;;22.44;49.77;99381.56;4929671;28;102050;-65
2022/07/18 08:50:31;;;;;;;;;1.00;1.00;;;;;22.45;49.73;99381.31;4918675;28;102386;-65
2022/07/18 08:52:58;;;;;;;;;1.00;1.00;;;;;22.45;49.80;99383.25;4916400;28;104147;-65
2022/07/18 08:55:25;;;;;;;;;1.00;1.00;;;;;22.44;49.84;99379.66;4927356;28;102341;-65
2022/07/18 08:57:53;;;;;;;;;0.00;0.00;;;;;22.45;49.88;99384.09;4933728;28;101989;-65
2022/07/18 09:00:21;;;;;;;;;1.00;1.00;;;;;22.46;49.90;99384.91;4915076;28;102566;-65
2022/07/18 09:02:59;;;;;;;;;0.00;0.00;;;;;22.45;49.78;99389.59;4911804;28;104414;-65
2022/07/18 09:05:26;;;;;;;;;0.00;0.00;;;;;22.44;50.15;99387.09;4910076;28;102319;-65
2022/07/18 09:08:19;;;;;;;;;1.00;1.00;;;;;22.46;50.04;99387.66;4912724;28;103542;-65
2022/07/18 09:10:51;;;;;;;;;0.00;0.00;;;;;22.46;49.79;99393.19;4934918;28;102291;-65
2022/07/18 09:13:19;;;;;;;;;1.00;1.00;;;;;22.46;49.88;99387.66;4916745;28;102792;-65
2022/07/18 09:16:06;;;;;;;;;1.00;1.00;;;;;22.47;49.87;99389.34;4911403;28;103066;-65
2022/07/18 09:18:34;;;;;;;;;0.00;0.00;;;;;22.46;49.96;99387.66;4899548;28;102268;-65
2022/07/18 09:21:05;;;;;;;;;0.00;0.00;;;;;22.49;49.72;99387.16;4918666;28;102425;-65
2022/07/18 09:23:34;;;;;;;;;0.00;0.00;;;;;22.48;49.70;99382.72;4898729;28;104497;-65
2022/07/18 09:26:02;;;;;;;;;1.00;1.00;;;;;22.48;49.89;99382.72;4914809;28;102030;-65
2022/07/18 09:28:51;;;;;;;;;0.33;0.33;;;;;22.48;49.76;99374.44;4912439;28;102521;-66
2022/07/18 09:31:38;;;;;;;;;0.00;0.00;;;;;22.49;49.70;99385.22;4919411;28;102265;-65
2022/07/18 09:34:06;;;;;;;;;1.00;1.00;;;;;22.50;49.79;99380.56;4929347;28;104063;-66
2022/07/18 09:36:36;;;;;;;;;0.67;0.67;;;;;22.51;49.65;99377.53;4894320;28;102404;-65
2022/07/18 09:39:19;;;;;;;;;2.00;1.00;;;;;22.51;49.95;99385.81;4899326;28;102558;-65
2022/07/18 09:41:47;;;;;;;;;1.00;1.00;;;;;22.51;49.83;99379.47;4910524;28;102898;-65
2022/07/18 09:44:17;;;;;;;;;0.00;0.00;;;;;22.52;49.76;99381.09;4914809;28;104127;-65
2022/07/18 09:47:03;;;;;;;;;0.00;0.00;;;;;22.53;49.79;99377.25;4921545;28;102538;-65
2022/07/18 09:49:32;;;;;;;;;1.00;1.00;;;;;22.53;49.74;99377.25;4913076;28;102524;-65
2022/07/18 09:52:07;;;;;;;;;0.67;0.67;;;;;22.53;49.72;99374.50;4907396;28;103396;-65
2022/07/18 09:54:41;;;;;;;;;0.00;0.00;;;;;22.53;49.74;99380.84;4913137;28;104202;-65
2022/07/18 09:57:08;;;;;;;;;0.33;0.33;;;;;22.54;49.87;99376.19;4929927;28;102316;-65
2022/07/18 09:59:36;;;;;;;;;1.00;1.00;;;;;22.55;49.65;99377.84;4928308;28;102463;-65
2022/07/18 10:02:06;;;;;;;;;0.00;0.00;;;;;22.55;49.73;99367.66;4914932;28;103818;-65
2022/07/18 10:04:33;;;;;;;;;0.00;0.00;;;;;22.56;49.56;99365.75;4911640;28;103344;-65
2022/07/18 10:07:00;;;;;;;;;1.00;1.00;;;;;22.56;49.89;99360.22;4927675;28;102364;-65
2022/07/18 10:09:27;;;;;;;;;1.00;1.00;;;;;22.56;49.94;99366.53;4883758;28;102205;-65
2022/07/18 10:11:55;;;;;;;;;1.00;1.00;;;;;22.56;49.80;99354.72;4914729;28;102990;-65
2022/07/18 10:14:29;;;;;;;;;0.00;0.00;;;;;22.56;49.88;99361.03;4911397;28;104265;-65
2022/07/18 10:16:57;;;;;;;;;1.00;0.00;;;;;22.57;49.53;99361.88;4898671;28;102746;-65
2022/07/18 10:19:24;;;;;;;;;0.67;0.00;;;;;22.58;49.89;99358.03;4895706;28;103212;-65
2022/07/18 10:21:51;;;;;;;;;0.00;0.00;;;;;22.58;49.76;99356.09;4914955;28;102002;-65
2022/07/18 10:24:18;;;;;;;;;0.33;0.33;;;;;22.58;49.84;99358.84;4897334;28;104110;-65
2022/07/18 10:26:45;;;;;;;;;1.00;0.00;;;;;22.59;49.87;99357.78;4898992;28;102693;-65
2022/07/18 10:29:15;;;;;;;;;0.33;0.33;;;;;22.60;49.68;99356.66;4918408;28;102627;-65
2022/07/18 10:32:01;;;;;;;;;1.00;0.33;;;;;22.59;49.66;99349.50;4912386;28;102520;-65
2022/07/18 10:34:32;;;;;;;;;0.00;0.00;;;;;22.61;49.54;99346.47;4936873;28;104319;-65
2022/07/18 10:37:02;;;;;;;;;0.33;0.00;;;;;22.61;49.77;99346.47;4894048;28;102184;-65
2022/07/18 10:39:37;;;;;;;;;0.33;0.00;;;;;22.61;49.68;99351.97;4913176;28;102956;-65
2022/07/18 10:42:11;;;;;;;;;0.00;0.00;;;;;22.61;49.64;99344.53;4914549;28;102237;-65
2022/07/18 10:44:40;;;;;;;;;0.00;0.00;;;;;22.63;49.47;99344.28;4936044;28;108432;-64
2022/07/18 10:47:08;;;;;;;;;1.00;0.00;;;;;22.63;49.51;99341.53;4910932;28;102256;-65
2022/07/18 10:49:47;;;;;;;;;1.00;1.00;;;;;22.63;49.55;99341.53;4922090;28;102437;-65
2022/07/18 10:52:27;;;;;;;;;0.00;0.00;;;;;22.64;49.67;99346.78;4910413;28;102560;-65
2022/07/18 10:55:23;;;;;;;;;0.00;0.00;;;;;22.65;49.61;99342.09;4911753;28;104249;-65
2022/07/18 10:57:50;;;;;;;;;0.00;0.00;;;;;22.65;49.55;99340.16;4908759;28;102418;-65
2022/07/18 11:00:38;;;;;;;;;0.67;0.67;;;;;22.67;49.55;99339.91;4915360;28;104753;-64
2022/07/18 11:03:09;;;;;;;;;1.00;0.67;;;;;22.66;49.58;99341.00;4912881;28;102353;-65
2022/07/18 11:05:45;;;;;;;;;0.00;0.00;;;;;22.67;49.56;99335.25;4913057;28;105272;-65
2022/07/18 11:08:17;;;;;;;;;0.00;0.00;;;;;22.67;49.57;99332.47;4908964;28;105411;-65
2022/07/18 11:10:45;;;;;;;;;0.00;0.00;;;;;22.67;49.47;99328.88;4919682;28;102619;-65
2022/07/18 11:13:24;;;;;;;;;0.00;0.00;;;;;22.68;49.53;99325.03;4915771;28;102195;-65
2022/07/18 11:15:56;;;;;;;;;0.00;0.00;;;;;22.68;49.56;99319.53;4912745;28;108845;-65
2022/07/18 11:18:23;;;;;;;;;0.00;0.00;;;;;22.68;49.58;99323.13;4884513;28;103122;-66
2022/07/18 11:20:50;;;;;;;;;0.67;0.67;;;;;22.69;49.42;99315.69;4909991;28;102149;-65
2022/07/18 11:23:22;;;;;;;;;0.00;0.00;;;;;22.69;49.63;99313.75;4890841;28;102732;-65
2022/07/18 11:25:52;;;;;;;;;0.33;0.33;;;;;22.70;49.54;99317.34;4892152;28;104184;-65
2022/07/18 11:28:25;;;;;;;;;0.00;0.00;;;;;22.71;49.58;99310.75;4905890;28;102202;-65
2022/07/18 11:31:03;;;;;;;;;0.00;0.00;;;;;22.71;49.91;99308.00;4910139;28;102158;-65
2022/07/18 11:33:32;;;;;;;;;0.00;0.00;;;;;22.72;49.44;99308.84;4913181;28;102680;-65